Time;durP1;ratioP1;P1;durP2;ratioP2;P2;SDS_P1;SDS_P2;PMS_P1;PMS_P2;Temp;Humidity;BMP_temperature;BMP_pressure;BME280_temperature;BME280_humidity;BME280_pressure;Samples;Min_cycle;Max_cycle;Signal;HPM_P1;HPM_P2
2021/01/25 00:00:26;;;;;;;1.80;0.88;;;22.20;30.30;;;;;;5090848;28;20415;-72
2021/01/25 00:02:51;;;;;;;2.23;0.90;;;22.20;30.30;;;;;;5075167;28;20387;-72
2021/01/25 00:05:17;;;;;;;1.40;0.80;;;22.20;30.30;;;;;;5074958;28;20779;-72
2021/01/25 00:07:43;;;;;;;2.00;0.80;;;22.20;30.40;;;;;;5075207;28;20931;-72
2021/01/25 00:10:09;;;;;;;1.42;0.70;;;22.20;30.30;;;;;;5075162;28;20400;-73
2021/01/25 00:12:34;;;;;;;1.70;0.90;;;22.20;30.30;;;;;;5074952;28;20471;-69
2021/01/25 00:15:00;;;;;;;1.07;0.70;;;22.20;30.20;;;;;;5074803;28;20475;-73
2021/01/25 00:17:26;;;;;;;1.90;0.90;;;22.20;30.10;;;;;;5074939;28;20929;-72
2021/01/25 00:19:52;;;;;;;1.42;0.90;;;22.20;30.20;;;;;;5074994;28;20427;-73
2021/01/25 00:22:17;;;;;;;1.37;0.87;;;22.20;30.20;;;;;;5074873;28;20402;-73
2021/01/25 00:24:43;;;;;;;1.60;0.80;;;22.20;30.20;;;;;;5074935;28;20764;-72
2021/01/25 00:27:09;;;;;;;1.40;0.80;;;22.10;30.30;;;;;;5074352;28;20872;-73
2021/01/25 00:29:35;;;;;;;1.25;0.70;;;22.20;30.30;;;;;;5074513;28;20486;-73
2021/01/25 00:32:01;;;;;;;1.58;0.80;;;22.10;30.00;;;;;;5074801;28;20411;-69
2021/01/25 00:34:27;;;;;;;1.70;0.80;;;22.10;30.10;;;;;;5074497;28;20408;-72
2021/01/25 00:36:53;;;;;;;1.65;0.75;;;22.10;30.00;;;;;;5074396;28;20453;-71
2021/01/25 00:39:18;;;;;;;1.58;0.85;;;22.10;30.00;;;;;;5074085;28;20876;-72
2021/01/25 00:41:44;;;;;;;1.33;0.70;;;22.10;30.00;;;;;;5074534;28;20445;-73
2021/01/25 00:44:10;;;;;;;1.20;0.60;;;22.10;30.00;;;;;;5074489;28;20395;-74
2021/01/25 00:46:35;;;;;;;1.27;0.60;;;22.10;30.40;;;;;;5074300;28;20411;-73
2021/01/25 00:49:02;;;;;;;0.93;0.60;;;22.10;30.00;;;;;;5074050;28;20391;-72
2021/01/25 00:51:27;;;;;;;1.30;0.70;;;22.10;29.90;;;;;;5074323;28;20392;-72
2021/01/25 00:53:53;;;;;;;1.30;0.75;;;22.10;30.00;;;;;;5074168;28;20391;-73
2021/01/25 00:56:18;;;;;;;1.60;0.77;;;22.10;30.00;;;;;;5074203;28;20388;-72
2021/01/25 00:58:44;;;;;;;1.20;0.70;;;22.10;29.90;;;;;;5089796;28;20478;-72
2021/01/25 01:01:10;;;;;;;1.30;0.70;;;22.10;29.90;;;;;;5073602;28;20823;-72
2021/01/25 01:03:35;;;;;;;1.02;0.60;;;22.00;29.80;;;;;;5074036;28;20450;-73
2021/01/25 01:06:02;;;;;;;1.20;0.60;;;22.00;29.80;;;;;;5073260;28;20415;-72
2021/01/25 01:08:27;;;;;;;1.00;0.60;;;22.00;29.80;;;;;;5073907;28;20879;-71
2021/01/25 01:10:53;;;;;;;1.40;0.73;;;22.00;29.80;;;;;;5073827;28;20392;-67
2021/01/25 01:13:19;;;;;;;1.58;0.70;;;22.00;29.70;;;;;;5073651;28;20396;-72
2021/01/25 01:15:45;;;;;;;1.00;0.63;;;22.00;29.80;;;;;;5074031;28;20399;-72
2021/01/25 01:18:10;;;;;;;1.05;0.60;;;22.00;29.70;;;;;;5073737;28;20379;-72
2021/01/25 01:20:37;;;;;;;0.90;0.50;;;22.00;29.70;;;;;;5073656;28;20403;-70
2021/01/25 01:23:02;;;;;;;1.27;0.75;;;22.00;29.70;;;;;;5073316;28;20468;-72
2021/01/25 01:25:28;;;;;;;1.40;0.70;;;22.00;29.60;;;;;;5073707;28;20411;-71
2021/01/25 01:27:54;;;;;;;1.50;0.70;;;22.00;29.60;;;;;;5073774;28;20387;-71
2021/01/25 01:30:20;;;;;;;1.20;0.70;;;21.90;30.00;;;;;;5073760;28;20457;-73
2021/01/25 01:32:45;;;;;;;0.70;0.50;;;21.90;29.50;;;;;;5073436;28;20414;-72
2021/01/25 01:35:11;;;;;;;1.20;0.70;;;21.90;29.50;;;;;;5072829;28;20945;-72
2021/01/25 01:37:37;;;;;;;1.10;0.60;;;21.90;29.50;;;;;;5073472;28;20471;-72
2021/01/25 01:40:08;;;;;;;1.63;0.80;;;21.90;29.60;;;;;;5073658;28;20871;-73
2021/01/25 01:42:35;;;;;;;0.97;0.60;;;21.90;29.40;;;;;;5073320;28;21154;-68
2021/01/25 01:45:01;;;;;;;1.33;0.60;;;21.90;29.50;;;;;;5072946;28;20411;-70
2021/01/25 01:47:28;;;;;;;1.20;0.63;;;21.90;29.40;;;;;;5073221;28;20383;-67
2021/01/25 01:49:56;;;;;;;0.80;0.60;;;21.90;29.50;;;;;;5073186;28;20391;-72
2021/01/25 01:52:22;;;;;;;1.10;0.60;;;21.90;29.40;;;;;;5072597;28;20402;-72
2021/01/25 01:54:48;;;;;;;1.10;0.60;;;21.90;29.40;;;;;;5072722;28;20474;-72
2021/01/25 01:57:15;;;;;;;1.10;0.60;;;21.90;29.40;;;;;;5072506;28;20391;-71
2021/01/25 01:59:40;;;;;;;0.90;0.50;;;21.90;29.40;;;;;;5073110;28;20395;-72
2021/01/25 02:02:06;;;;;;;0.87;0.50;;;21.90;29.40;;;;;;5073146;28;20388;-71
2021/01/25 02:04:33;;;;;;;1.27;0.63;;;21.90;29.40;;;;;;5072819;28;20855;-72
2021/01/25 02:07:01;;;;;;;1.10;0.60;;;21.80;29.40;;;;;;5072634;28;20395;-72
2021/01/25 02:09:27;;;;;;;1.33;0.70;;;21.80;29.40;;;;;;5072765;28;20501;-71
2021/01/25 02:11:54;;;;;;;0.65;0.40;;;21.80;29.30;;;;;;5072874;28;20384;-73
2021/01/25 02:14:20;;;;;;;1.00;0.60;;;21.80;29.30;;;;;;5072743;28;20868;-72
2021/01/25 02:16:46;;;;;;;1.33;0.60;;;21.80;29.20;;;;;;5071687;28;20388;-72
2021/01/25 02:19:33;;;;;;;0.93;0.40;;;21.80;29.30;;;;;;5072277;28;20390;-72
2021/01/25 02:22:18;;;;;;;1.10;0.60;;;21.80;29.30;;;;;;5072540;28;20406;-72
2021/01/25 02:25:12;;;;;;;0.90;0.60;;;21.80;29.30;;;;;;5072538;28;20403;-72
2021/01/25 02:27:42;;;;;;;0.90;0.60;;;21.80;29.30;;;;;;5071918;28;20400;-73
2021/01/25 02:30:09;;;;;;;1.13;0.60;;;21.80;29.30;;;;;;5072339;28;20383;-73
2021/01/25 02:32:36;;;;;;;0.93;0.50;;;21.80;29.30;;;;;;5072356;28;20392;-73
2021/01/25 02:35:05;;;;;;;0.90;0.50;;;21.70;29.20;;;;;;5072041;28;20404;-72
2021/01/25 02:37:32;;;;;;;0.88;0.57;;;21.80;29.20;;;;;;5072075;28;20380;-72
2021/01/25 02:39:59;;;;;;;1.07;0.60;;;21.70;29.20;;;;;;5072287;28;20468;-72
2021/01/25 02:42:27;;;;;;;0.90;0.50;;;21.70;29.20;;;;;;5070702;28;20892;-73
2021/01/25 02:44:53;;;;;;;1.00;0.52;;;21.70;29.20;;;;;;5072373;28;20469;-73
2021/01/25 02:47:21;;;;;;;0.90;0.55;;;21.70;29.20;;;;;;5071326;28;20935;-72
2021/01/25 02:49:46;;;;;;;0.85;0.55;;;21.70;29.10;;;;;;5072119;28;20403;-72
2021/01/25 02:52:14;;;;;;;1.03;0.67;;;21.70;29.10;;;;;;5072205;28;20387;-73
2021/01/25 02:54:40;;;;;;;0.90;0.60;;;21.70;29.00;;;;;;5072093;28;20388;-72
2021/01/25 02:57:08;;;;;;;0.80;0.50;;;21.70;29.00;;;;;;5071370;28;20391;-70
2021/01/25 02:59:35;;;;;;;1.08;0.60;;;21.70;29.10;;;;;;5071829;28;20380;-73
2021/01/25 03:02:02;;;;;;;0.88;0.50;;;21.70;29.10;;;;;;5071937;28;20396;-72
2021/01/25 03:04:29;;;;;;;1.05;0.60;;;21.70;29.00;;;;;;5071701;28;20499;-72
2021/01/25 03:06:56;;;;;;;0.85;0.50;;;21.70;29.10;;;;;;5071181;28;20529;-73
2021/01/25 03:09:22;;;;;;;1.17;0.60;;;21.60;29.10;;;;;;5071178;28;20819;-73
2021/01/25 03:11:48;;;;;;;1.00;0.60;;;21.70;29.10;;;;;;5072088;28;20479;-72
2021/01/25 03:14:14;;;;;;;0.90;0.55;;;21.70;29.00;;;;;;5071596;28;20455;-72
2021/01/25 03:16:39;;;;;;;1.00;0.60;;;21.70;29.00;;;;;;5071616;28;20388;-72
2021/01/25 03:19:05;;;;;;;0.82;0.50;;;21.70;29.00;;;;;;5070657;28;20880;-69
2021/01/25 03:21:34;;;;;;;0.97;0.50;;;21.60;29.00;;;;;;5070640;28;20392;-72
2021/01/25 03:24:01;;;;;;;1.13;0.60;;;21.60;29.00;;;;;;5070805;28;20399;-72
2021/01/25 03:26:27;;;;;;;1.23;0.50;;;21.60;28.90;;;;;;5071140;28;20414;-73
2021/01/25 03:28:52;;;;;;;0.88;0.60;;;21.60;28.90;;;;;;5071033;28;20744;-73
2021/01/25 03:31:18;;;;;;;1.10;0.60;;;21.60;28.90;;;;;;5070931;28;20390;-72
2021/01/25 03:33:43;;;;;;;1.13;0.60;;;21.60;28.90;;;;;;5070851;28;20391;-73
2021/01/25 03:36:09;;;;;;;0.80;0.50;;;21.60;28.90;;;;;;5071085;28;20431;-72
2021/01/25 03:38:35;;;;;;;1.27;0.60;;;21.60;28.90;;;;;;5071440;28;20397;-73
2021/01/25 03:41:01;;;;;;;1.00;0.60;;;21.60;29.40;;;;;;5071211;28;20403;-72
2021/01/25 03:43:27;;;;;;;0.90;0.60;;;21.60;28.80;;;;;;5071091;28;20783;-72
2021/01/25 03:45:53;;;;;;;1.07;0.60;;;21.60;28.90;;;;;;5086714;28;20465;-73
2021/01/25 03:48:21;;;;;;;1.25;0.80;;;21.50;28.90;;;;;;5071349;28;20384;-73
2021/01/25 03:50:47;;;;;;;0.90;0.55;;;21.50;28.80;;;;;;5071520;28;20395;-72
2021/01/25 03:53:12;;;;;;;1.00;0.60;;;21.60;29.00;;;;;;5070780;28;20395;-72
2021/01/25 03:55:38;;;;;;;1.00;0.60;;;21.60;28.80;;;;;;5071276;28;20388;-70
2021/01/25 03:58:03;;;;;;;1.42;0.60;;;21.50;28.80;;;;;;5071174;28;20376;-73
2021/01/25 04:00:29;;;;;;;1.03;0.63;;;21.50;28.70;;;;;;5071256;28;20460;-73
2021/01/25 04:02:56;;;;;;;1.33;0.60;;;21.60;28.80;;;;;;5071315;28;20430;-72
2021/01/25 04:05:21;;;;;;;0.85;0.50;;;21.60;28.80;;;;;;5070627;28;20423;-72
2021/01/25 04:07:47;;;;;;;1.50;0.70;;;21.50;28.60;;;;;;5070031;28;20397;-69
2021/01/25 04:10:13;;;;;;;1.90;0.80;;;21.50;29.10;;;;;;5070022;28;20390;-72
2021/01/25 04:12:38;;;;;;;1.80;0.80;;;21.60;29.20;;;;;;5070267;28;20412;-72
2021/01/25 04:15:06;;;;;;;1.42;0.75;;;21.50;30.40;;;;;;5070410;28;20473;-72
2021/01/25 04:17:31;;;;;;;1.20;0.70;;;21.50;30.30;;;;;;5071404;28;20517;-73
2021/01/25 04:19:57;;;;;;;1.20;0.87;;;21.50;30.00;;;;;;5070813;28;20838;-72
2021/01/25 04:22:23;;;;;;;1.30;0.70;;;21.60;29.70;;;;;;5070325;28;20382;-69
2021/01/25 04:24:48;;;;;;;1.30;0.70;;;21.60;29.90;;;;;;5070269;28;20487;-73
2021/01/25 04:27:14;;;;;;;3.10;0.80;;;21.60;30.00;;;;;;5069957;28;20431;-71
2021/01/25 04:29:40;;;;;;;2.20;0.80;;;21.60;31.50;;;;;;5070474;28;20748;-74
2021/01/25 04:32:06;;;;;;;4.10;0.80;;;21.70;31.80;;;;;;5070756;28;20397;-62
2021/01/25 04:34:32;;;;;;;1.57;0.90;;;21.70;31.10;;;;;;5070704;28;20851;-74
2021/01/25 04:36:58;;;;;;;4.40;0.90;;;21.70;31.50;;;;;;5070071;28;20398;-75
2021/01/25 04:39:24;;;;;;;3.03;0.70;;;21.70;32.40;;;;;;5069255;28;20753;-74
2021/01/25 04:41:49;;;;;;;3.10;0.80;;;21.70;32.00;;;;;;5072888;28;20390;-73
2021/01/25 04:44:15;;;;;;;2.88;0.85;;;21.70;32.40;;;;;;5073718;28;20425;-74
2021/01/25 04:46:43;;;;;;;2.45;0.80;;;21.70;32.30;;;;;;5073857;28;20422;-74
2021/01/25 04:49:11;;;;;;;1.50;0.70;;;21.70;31.00;;;;;;5073379;28;20376;-64
2021/01/25 04:51:37;;;;;;;2.15;0.80;;;21.70;30.90;;;;;;5073208;28;20403;-73
2021/01/25 04:54:06;;;;;;;3.67;0.80;;;21.70;30.80;;;;;;5074142;28;20470;-74
2021/01/25 04:56:32;;;;;;;3.53;0.90;;;21.60;30.20;;;;;;5074174;28;20753;-74
2021/01/25 04:58:58;;;;;;;2.20;0.60;;;21.70;30.30;;;;;;5074140;28;20945;-74
2021/01/25 05:01:23;;;;;;;3.20;0.70;;;21.70;30.00;;;;;;5073302;28;20400;-75
2021/01/25 05:03:49;;;;;;;3.00;0.80;;;21.60;30.00;;;;;;5074018;28;20388;-74
2021/01/25 05:06:15;;;;;;;1.88;0.80;;;21.60;30.00;;;;;;5073328;28;20407;-72
2021/01/25 05:08:41;;;;;;;2.33;1.00;;;21.60;29.60;;;;;;5073584;28;20736;-74
2021/01/25 05:11:14;;;;;;;4.43;0.80;;;21.60;29.80;;;;;;5073671;28;20403;-73
2021/01/25 05:13:40;;;;;;;2.72;0.98;;;21.50;29.80;;;;;;5073892;28;20398;-73
2021/01/25 05:16:20;;;;;;;3.60;0.83;;;21.50;29.90;;;;;;5073871;28;20392;-71
2021/01/25 05:18:57;;;;;;;2.03;0.90;;;21.50;29.90;;;;;;5089429;28;20404;-74
2021/01/25 05:21:42;;;;;;;2.10;0.75;;;21.50;29.70;;;;;;5073435;28;20388;-74
2021/01/25 05:24:09;;;;;;;2.60;0.90;;;21.50;29.60;;;;;;5073623;28;20709;-74
2021/01/25 05:26:35;;;;;;;2.10;0.70;;;21.50;29.50;;;;;;5073443;28;20426;-74
2021/01/25 05:29:02;;;;;;;2.10;0.73;;;21.50;29.40;;;;;;5073776;28;20372;-74
2021/01/25 05:31:28;;;;;;;1.60;0.80;;;21.50;29.30;;;;;;5073393;28;20480;-74
2021/01/25 05:33:54;;;;;;;1.90;0.75;;;21.50;29.30;;;;;;5073113;28;20380;-74
2021/01/25 05:36:29;;;;;;;3.07;0.80;;;21.40;29.40;;;;;;5073360;28;20475;-74
2021/01/25 05:38:55;;;;;;;1.60;0.60;;;21.40;29.30;;;;;;5073498;28;20398;-74
2021/01/25 05:41:22;;;;;;;2.40;0.80;;;21.40;29.20;;;;;;5072881;28;20392;-74
2021/01/25 05:43:49;;;;;;;1.75;0.80;;;21.40;29.30;;;;;;5072722;28;20740;-74
2021/01/25 05:46:17;;;;;;;1.25;0.60;;;21.40;29.10;;;;;;5073470;28;20411;-73
2021/01/25 05:48:44;;;;;;;1.75;0.68;;;21.40;29.00;;;;;;5073235;28;20799;-73
2021/01/25 05:51:18;;;;;;;1.30;0.68;;;21.40;29.10;;;;;;5072848;28;20388;-74
2021/01/25 05:53:45;;;;;;;1.60;0.70;;;21.40;29.00;;;;;;5073299;28;20380;-74
2021/01/25 05:56:12;;;;;;;2.40;0.80;;;21.30;29.00;;;;;;5073510;28;20399;-74
2021/01/25 05:58:39;;;;;;;2.15;0.80;;;21.30;28.80;;;;;;5072205;28;20380;-71
2021/01/25 06:01:05;;;;;;;1.83;0.70;;;21.30;29.00;;;;;;5072577;28;20490;-74
2021/01/25 06:03:36;;;;;;;1.13;0.57;;;21.30;29.00;;;;;;5072656;28;20474;-74
2021/01/25 06:06:12;;;;;;;1.50;0.70;;;21.30;28.90;;;;;;5073020;28;20434;-74
2021/01/25 06:08:47;;;;;;;1.30;0.77;;;21.30;28.90;;;;;;5072921;28;20376;-70
2021/01/25 06:11:30;;;;;;;1.42;0.80;;;21.30;28.80;;;;;;5072654;28;20487;-70
2021/01/25 06:14:17;;;;;;;1.02;0.65;;;21.20;28.80;;;;;;5073055;28;20392;-69
2021/01/25 06:16:48;;;;;;;1.88;0.70;;;21.30;28.80;;;;;;5072686;28;20380;-74
2021/01/25 06:19:14;;;;;;;1.85;0.90;;;21.30;28.80;;;;;;5072228;28;20412;-73
2021/01/25 06:21:40;;;;;;;1.20;0.70;;;21.30;28.70;;;;;;5072779;28;20415;-74
2021/01/25 06:24:12;;;;;;;1.38;0.60;;;21.30;28.70;;;;;;5072734;28;20388;-74
2021/01/25 06:26:39;;;;;;;1.33;0.60;;;21.30;28.80;;;;;;5072498;28;20525;-74
2021/01/25 06:29:06;;;;;;;1.35;0.50;;;21.30;29.20;;;;;;5072477;28;20395;-74
2021/01/25 06:31:40;;;;;;;1.80;0.80;;;21.20;28.70;;;;;;5069294;28;20423;-74
2021/01/25 06:34:09;;;;;;;1.30;0.70;;;21.20;28.60;;;;;;5068950;28;20411;-73
2021/01/25 06:36:35;;;;;;;1.23;0.70;;;21.20;28.70;;;;;;5072209;28;20884;-72
2021/01/25 06:39:06;;;;;;;1.52;0.70;;;21.20;29.20;;;;;;5072211;28;20391;-66
2021/01/25 06:41:42;;;;;;;2.03;0.65;;;21.30;28.70;;;;;;5068808;28;20391;-74
2021/01/25 06:44:09;;;;;;;1.85;0.65;;;21.20;28.70;;;;;;5069933;28;20399;-71
2021/01/25 06:46:39;;;;;;;1.77;0.70;;;21.20;29.00;;;;;;5069784;28;20422;-74
2021/01/25 06:49:07;;;;;;;2.00;0.57;;;21.30;29.10;;;;;;5071637;28;20388;-73
2021/01/25 06:51:38;;;;;;;2.50;0.80;;;21.30;29.20;;;;;;5070667;28;20434;-74
2021/01/25 06:54:04;;;;;;;2.08;0.80;;;21.30;29.30;;;;;;5070214;28;20395;-74
2021/01/25 06:56:50;;;;;;;2.53;0.70;;;21.30;29.30;;;;;;5071937;28;20383;-74
2021/01/25 06:59:20;;;;;;;1.98;0.70;;;21.20;29.20;;;;;;5068381;28;20407;-73
2021/01/25 07:01:50;;;;;;;2.05;0.80;;;21.20;29.20;;;;;;5068022;28;20392;-72
2021/01/25 07:04:18;;;;;;;3.25;1.00;;;21.30;29.20;;;;;;5070242;28;20403;-73
2021/01/25 07:06:49;;;;;;;2.65;0.90;;;21.20;29.20;;;;;;5063918;28;20486;-74
2021/01/25 07:09:29;;;;;;;2.22;0.90;;;21.20;29.30;;;;;;5070233;28;20394;-71
2021/01/25 07:12:00;;;;;;;3.97;0.90;;;21.20;29.40;;;;;;5064117;28;20391;-74
2021/01/25 07:14:30;;;;;;;4.53;0.80;;;21.20;29.40;;;;;;5069277;28;20755;-73
2021/01/25 07:16:57;;;;;;;2.60;0.80;;;21.30;29.50;;;;;;5085884;28;21061;-74
2021/01/25 07:19:23;;;;;;;2.10;0.80;;;21.30;29.40;;;;;;5069808;28;20905;-73
2021/01/25 07:21:51;;;;;;;3.05;0.80;;;21.20;29.30;;;;;;5070514;28;20384;-73
2021/01/25 07:24:23;;;;;;;2.40;0.90;;;21.30;29.50;;;;;;5070304;28;20391;-73
2021/01/25 07:26:56;;;;;;;2.53;0.70;;;21.30;29.40;;;;;;5070280;28;20471;-73
2021/01/25 07:29:23;;;;;;;2.08;0.70;;;21.30;29.50;;;;;;5069969;28;20379;-66
2021/01/25 07:31:49;;;;;;;2.47;0.80;;;21.20;29.50;;;;;;5070157;28;20868;-73
2021/01/25 07:34:15;;;;;;;2.20;0.80;;;21.20;29.70;;;;;;5069799;28;20769;-73
2021/01/25 07:36:41;;;;;;;1.17;0.70;;;21.20;29.70;;;;;;5070118;28;20876;-73
2021/01/25 07:39:09;;;;;;;1.02;0.60;;;21.20;29.70;;;;;;5070084;28;20455;-70
2021/01/25 07:41:36;;;;;;;4.60;0.90;;;21.20;29.70;;;;;;5069294;28;20457;-73
2021/01/25 07:44:02;;;;;;;1.70;0.70;;;21.20;29.60;;;;;;5068927;28;20418;-73
2021/01/25 07:46:28;;;;;;;2.75;0.88;;;21.20;29.60;;;;;;5069859;28;20403;-73
2021/01/25 07:48:55;;;;;;;2.40;0.80;;;21.20;29.60;;;;;;5070296;28;20398;-73
2021/01/25 07:51:23;;;;;;;2.07;0.97;;;21.20;29.60;;;;;;5068842;28;20403;-72
2021/01/25 07:53:49;;;;;;;1.85;0.90;;;21.20;29.60;;;;;;5069938;28;20940;-74
2021/01/25 07:56:16;;;;;;;1.70;0.90;;;21.20;29.60;;;;;;5069785;28;20444;-61
2021/01/25 07:58:42;;;;;;;1.48;0.77;;;21.20;29.50;;;;;;5069921;28;20407;-73
2021/01/25 08:01:12;;;;;;;1.40;0.93;;;21.20;29.60;;;;;;5070065;28;20434;-72
2021/01/25 08:03:42;;;;;;;2.10;1.02;;;21.20;29.50;;;;;;5069591;28;20937;-71
2021/01/25 08:06:09;;;;;;;2.17;1.00;;;21.20;29.60;;;;;;5069951;28;20415;-70
2021/01/25 08:08:36;;;;;;;1.50;0.90;;;21.20;29.60;;;;;;5069996;28;20391;-72
2021/01/25 08:11:06;;;;;;;2.97;1.00;;;21.20;29.60;;;;;;5069340;28;20949;-74
2021/01/25 08:14:02;;;;;;;1.98;1.10;;;21.30;29.60;;;;;;5069047;28;20388;-71
2021/01/25 08:16:38;;;;;;;1.67;1.10;;;21.30;29.60;;;;;;5063357;28;20748;-72
2021/01/25 08:19:40;;;;;;;1.65;1.10;;;21.30;29.60;;;;;;5073752;28;20425;-70
2021/01/25 08:22:13;;;;;;;1.52;1.10;;;21.30;29.60;;;;;;5067195;28;20752;-73
2021/01/25 08:24:39;;;;;;;1.70;1.15;;;21.30;29.60;;;;;;5073306;28;20391;-73
2021/01/25 08:27:13;;;;;;;1.53;1.00;;;21.30;29.60;;;;;;5073473;28;20454;-74
2021/01/25 08:29:40;;;;;;;1.60;1.20;;;21.30;29.60;;;;;;5071957;28;20391;-73
2021/01/25 08:32:21;;;;;;;1.73;1.23;;;21.30;29.70;;;;;;5071850;28;20656;-72
2021/01/25 08:34:57;;;;;;;2.28;1.20;;;21.30;29.60;;;;;;5071422;28;20472;-73
2021/01/25 08:37:29;;;;;;;1.88;1.20;;;21.30;29.60;;;;;;5073960;28;20379;-73
2021/01/25 08:39:55;;;;;;;2.58;1.10;;;21.20;29.50;;;;;;5074423;28;20380;-70
2021/01/25 08:42:24;;;;;;;1.98;1.20;;;21.20;29.50;;;;;;5074092;28;20548;-73
2021/01/25 08:45:12;;;;;;;2.17;1.10;;;21.20;29.50;;;;;;5072048;28;20406;-73
2021/01/25 08:47:39;;;;;;;1.80;1.27;;;21.30;29.50;;;;;;5073993;28;21324;-65
2021/01/25 08:50:28;;;;;;;1.83;1.40;;;21.20;29.50;;;;;;5074321;28;20859;-73
2021/01/25 08:53:07;;;;;;;1.50;1.10;;;21.20;29.50;;;;;;5071383;28;20422;-74
2021/01/25 08:55:40;;;;;;;1.65;1.20;;;21.20;29.50;;;;;;5073733;28;20432;-73
2021/01/25 08:58:29;;;;;;;2.30;1.15;;;21.20;29.60;;;;;;5074423;28;20403;-74
2021/01/25 09:00:55;;;;;;;1.90;1.30;;;21.20;29.60;;;;;;5074177;28;20759;-73
2021/01/25 09:03:23;;;;;;;1.80;1.10;;;21.20;29.60;;;;;;5073616;28;20376;-71
2021/01/25 09:05:54;;;;;;;1.60;1.23;;;21.20;29.60;;;;;;5071276;28;20415;-69
2021/01/25 09:08:20;;;;;;;1.70;1.20;;;21.20;29.70;;;;;;5072996;28;20488;-74
2021/01/25 09:10:46;;;;;;;2.50;1.20;;;21.20;29.60;;;;;;5073880;28;20399;-74
2021/01/25 09:13:12;;;;;;;2.00;1.20;;;21.20;29.60;;;;;;5073936;28;20380;-72
2021/01/25 09:15:38;;;;;;;1.90;1.20;;;21.10;29.60;;;;;;5072795;28;20403;-74
2021/01/25 09:18:07;;;;;;;2.50;1.10;;;21.10;29.60;;;;;;5071833;28;20388;-74
2021/01/25 09:20:32;;;;;;;2.15;1.40;;;21.10;29.60;;;;;;5072616;28;20892;-72
2021/01/25 09:22:58;;;;;;;2.47;1.30;;;21.10;29.50;;;;;;5071904;28;20407;-74
2021/01/25 09:25:24;;;;;;;1.55;1.00;;;21.10;29.50;;;;;;5072485;28;20943;-61
2021/01/25 09:27:50;;;;;;;1.88;1.20;;;21.10;29.50;;;;;;5073414;28;20387;-70
2021/01/25 09:30:17;;;;;;;2.07;1.20;;;21.10;29.50;;;;;;5073575;28;20903;-74
2021/01/25 09:32:43;;;;;;;1.80;1.17;;;21.10;29.50;;;;;;5073759;28;20380;-74
2021/01/25 09:35:12;;;;;;;1.83;1.20;;;21.10;29.50;;;;;;5073288;28;20772;-74
2021/01/25 09:37:38;;;;;;;2.57;1.30;;;21.00;29.50;;;;;;5072991;28;20412;-71
2021/01/25 09:40:05;;;;;;;1.75;1.17;;;21.10;29.60;;;;;;5073420;28;20386;-74
2021/01/25 09:42:31;;;;;;;1.67;1.30;;;21.10;29.60;;;;;;5073333;28;20402;-73
2021/01/25 09:44:57;;;;;;;2.15;1.15;;;21.10;29.60;;;;;;5073208;28;20404;-74
2021/01/25 09:47:23;;;;;;;1.90;1.27;;;21.10;29.60;;;;;;5072793;28;20490;-73
2021/01/25 09:49:48;;;;;;;1.80;1.00;;;21.00;29.60;;;;;;5073334;28;20376;-73
2021/01/25 09:52:14;;;;;;;1.97;1.20;;;21.10;29.70;;;;;;5073229;28;20396;-74
2021/01/25 09:54:40;;;;;;;2.15;1.35;;;21.10;29.70;;;;;;5070701;28;20402;-72
2021/01/25 09:57:06;;;;;;;1.77;1.20;;;21.00;29.70;;;;;;5070927;28;20395;-73
2021/01/25 09:59:32;;;;;;;2.30;1.17;;;21.00;29.70;;;;;;5070049;28;20395;-73
2021/01/25 10:01:58;;;;;;;2.35;1.02;;;21.00;29.70;;;;;;5072897;28;20387;-71
2021/01/25 10:04:24;;;;;;;1.30;1.00;;;21.00;29.60;;;;;;5073112;28;20441;-73
2021/01/25 10:06:50;;;;;;;1.45;1.00;;;21.10;29.60;;;;;;5071870;28;20763;-71
2021/01/25 10:09:16;;;;;;;2.20;1.10;;;21.10;29.60;;;;;;5072723;28;20478;-72
2021/01/25 10:11:42;;;;;;;2.30;1.20;;;21.10;29.60;;;;;;5072646;28;20934;-73
2021/01/25 10:14:08;;;;;;;1.55;1.10;;;21.10;29.60;;;;;;5072778;28;20404;-72
2021/01/25 10:16:33;;;;;;;1.85;1.30;;;21.10;29.50;;;;;;5072726;28;20419;-73
2021/01/25 10:18:59;;;;;;;1.60;1.20;;;21.00;29.50;;;;;;5061612;28;20822;-73
2021/01/25 10:21:25;;;;;;;1.77;1.20;;;21.10;29.50;;;;;;5052120;28;20388;-73
2021/01/25 10:23:52;;;;;;;1.63;1.00;;;21.10;29.50;;;;;;5068078;28;20449;-62
2021/01/25 10:26:20;;;;;;;1.50;1.10;;;21.00;29.60;;;;;;5071705;28;20807;-73
2021/01/25 10:28:47;;;;;;;2.03;0.95;;;21.00;29.50;;;;;;5072568;28;20383;-74
2021/01/25 10:31:14;;;;;;;1.60;1.00;;;21.00;29.50;;;;;;5072393;28;20420;-70
2021/01/25 10:33:39;;;;;;;1.40;1.08;;;21.00;29.50;;;;;;5071807;28;20939;-74
2021/01/25 10:36:06;;;;;;;2.00;0.90;;;21.00;29.50;;;;;;5072289;28;20483;-73
2021/01/25 10:38:32;;;;;;;1.67;1.10;;;21.00;29.50;;;;;;5071545;28;20471;-74
2021/01/25 10:40:58;;;;;;;1.70;1.10;;;21.00;29.50;;;;;;5072234;28;20391;-59
2021/01/25 10:43:24;;;;;;;1.60;1.10;;;21.00;29.50;;;;;;5071643;28;20457;-64
2021/01/25 10:45:50;;;;;;;2.03;1.10;;;21.00;29.50;;;;;;5072074;28;20419;-60
2021/01/25 10:48:16;;;;;;;1.80;1.00;;;21.00;29.50;;;;;;5072161;28;20387;-74
2021/01/25 10:50:42;;;;;;;1.30;0.90;;;21.00;29.50;;;;;;5072022;28;20725;-74
2021/01/25 10:53:07;;;;;;;1.52;1.10;;;21.00;29.50;;;;;;5071947;28;20376;-71
2021/01/25 10:55:34;;;;;;;1.55;1.13;;;20.90;29.40;;;;;;5071428;28;20399;-64
2021/01/25 10:58:00;;;;;;;1.52;1.00;;;21.00;29.50;;;;;;5071062;28;20379;-74
2021/01/25 11:00:26;;;;;;;1.90;1.10;;;21.00;29.50;;;;;;5071784;28;20433;-74
2021/01/25 11:02:52;;;;;;;1.67;0.98;;;20.90;29.40;;;;;;5071853;28;20380;-74
2021/01/25 11:05:22;;;;;;;2.17;1.00;;;20.90;29.50;;;;;;5071869;28;20406;-74
2021/01/25 11:07:48;;;;;;;1.70;1.10;;;20.90;29.50;;;;;;5071373;28;20918;-74
2021/01/25 11:10:19;;;;;;;1.92;0.90;;;20.90;29.60;;;;;;5071717;28;20375;-65
2021/01/25 11:12:45;;;;;;;1.50;1.03;;;20.90;29.60;;;;;;5071750;28;20747;-69
2021/01/25 11:15:12;;;;;;;1.38;0.90;;;20.90;29.60;;;;;;5072005;28;20380;-72
2021/01/25 11:17:38;;;;;;;1.40;0.93;;;20.90;29.60;;;;;;5071148;28;20411;-73
2021/01/25 11:20:07;;;;;;;1.90;1.00;;;20.90;29.60;;;;;;5071316;28;20406;-65
2021/01/25 11:22:32;;;;;;;2.10;0.95;;;20.90;29.60;;;;;;5070756;28;20409;-59
2021/01/25 11:24:58;;;;;;;1.50;1.07;;;20.90;29.60;;;;;;5071577;28;20524;-61
2021/01/25 11:27:24;;;;;;;1.60;1.00;;;20.90;29.60;;;;;;5071461;28;20400;-60
2021/01/25 11:29:50;;;;;;;1.92;0.82;;;20.90;29.60;;;;;;5071326;28;20380;-59
2021/01/25 11:32:16;;;;;;;2.13;1.20;;;20.90;29.60;;;;;;5070963;28;20391;-60
2021/01/25 11:34:43;;;;;;;1.90;1.00;;;20.90;29.70;;;;;;5071285;28;20883;-74
2021/01/25 11:37:09;;;;;;;1.87;1.03;;;20.90;29.70;;;;;;5070630;28;20406;-74
2021/01/25 11:39:35;;;;;;;1.67;1.10;;;20.90;29.70;;;;;;5071024;28;20380;-60
2021/01/25 11:42:01;;;;;;;1.88;1.00;;;20.90;29.60;;;;;;5071066;28;20483;-60
2021/01/25 11:44:28;;;;;;;1.90;0.90;;;20.90;29.60;;;;;;5071380;28;20388;-60
2021/01/25 11:46:54;;;;;;;1.98;0.98;;;20.90;29.70;;;;;;5071426;28;20875;-63
2021/01/25 11:49:21;;;;;;;1.45;0.90;;;20.90;29.60;;;;;;5073489;28;20418;-61
2021/01/25 11:51:47;;;;;;;1.70;0.95;;;20.90;29.60;;;;;;5077745;28;20403;-69
2021/01/25 11:54:14;;;;;;;1.30;0.88;;;20.80;29.60;;;;;;5077904;28;20458;-59
2021/01/25 11:56:39;;;;;;;1.30;0.90;;;20.90;29.60;;;;;;5077512;28;20388;-72
2021/01/25 11:59:05;;;;;;;1.25;0.85;;;20.90;29.60;;;;;;5075419;28;20468;-74
2021/01/25 12:01:32;;;;;;;1.42;0.95;;;20.90;29.60;;;;;;5074391;28;20383;-73
2021/01/25 12:03:58;;;;;;;1.83;0.82;;;20.80;29.60;;;;;;5077894;28;20476;-73
2021/01/25 12:06:23;;;;;;;1.50;0.85;;;20.80;29.60;;;;;;5093193;28;20907;-74
2021/01/25 12:08:49;;;;;;;2.03;0.90;;;20.90;29.60;;;;;;5078134;28;20395;-73
2021/01/25 12:11:18;;;;;;;1.50;1.00;;;20.80;29.60;;;;;;5077947;28;20394;-73
2021/01/25 12:13:43;;;;;;;1.45;0.90;;;20.80;29.60;;;;;;5077469;28;20379;-72
2021/01/25 12:16:16;;;;;;;1.27;0.77;;;20.80;29.50;;;;;;5077776;28;20516;-72
2021/01/25 12:18:45;;;;;;;1.73;0.97;;;20.80;29.50;;;;;;5078008;28;20383;-66
2021/01/25 12:21:12;;;;;;;1.58;1.00;;;20.80;29.50;;;;;;5077042;28;20394;-74
2021/01/25 12:23:38;;;;;;;1.30;1.00;;;20.80;29.50;;;;;;5077312;28;20384;-73
2021/01/25 12:26:05;;;;;;;1.75;0.98;;;20.80;29.50;;;;;;5075184;28;20425;-74
2021/01/25 12:28:31;;;;;;;2.63;1.02;;;20.80;29.50;;;;;;5070909;28;20396;-74
2021/01/25 12:30:58;;;;;;;1.70;0.90;;;20.80;29.60;;;;;;5057735;28;20400;-72
2021/01/25 12:33:24;;;;;;;2.20;0.93;;;20.80;29.50;;;;;;5057006;28;20857;-71
2021/01/25 12:35:49;;;;;;;2.15;0.90;;;20.80;29.40;;;;;;5056838;28;20428;-74
2021/01/25 12:38:19;;;;;;;1.70;1.00;;;20.80;29.30;;;;;;5057666;28;20389;-59
2021/01/25 12:40:46;;;;;;;2.42;1.10;;;20.80;29.20;;;;;;5074739;28;20391;-74
2021/01/25 12:43:11;;;;;;;1.67;1.00;;;20.80;29.00;;;;;;5076416;28;20384;-73
2021/01/25 12:45:37;;;;;;;1.35;0.80;;;20.80;28.90;;;;;;5075776;28;20472;-74
2021/01/25 12:48:03;;;;;;;1.20;0.85;;;20.80;28.80;;;;;;5077403;28;20751;-74
2021/01/25 12:50:30;;;;;;;1.50;0.80;;;20.80;28.80;;;;;;5076138;28;20418;-75